sensor_id;sensor_type;location;lat;lon;timestamp;pressure;altitude;pressure_sealevel;temperature;humidity
73306;BME280;61530;51.158;0.880;2023-07-20T00:00:38;1012.71;;;16.125;35.3742
73306;BME280;61530;51.158;0.880;2023-07-20T00:01:43;1012.71;;;16.125;35.8837
73306;BME280;61530;51.158;0.880;2023-07-20T00:02:49;1012.74;;;16.0625;35.8126
73306;BME280;61530;51.158;0.880;2023-07-20T00:03:49;1012.76;;;16.125;36.1526
73306;BME280;61530;51.158;0.880;2023-07-20T00:04:52;1012.78;;;16.3125;36.569
73306;BME280;61530;51.158;0.880;2023-07-20T00:05:52;1012.81;;;16.3125;36.3475
73306;BME280;61530;51.158;0.880;2023-07-20T00:06:55;1012.81;;;16.1875;36.7175
73306;BME280;61530;51.158;0.880;2023-07-20T00:07:58;1012.8;;;16.125;36.723
73306;BME280;61530;51.158;0.880;2023-07-20T00:09:01;1012.78;;;16.1875;36.3763
73306;BME280;61530;51.158;0.880;2023-07-20T00:10:05;1012.79;;;16.375;36.7457
73306;BME280;61530;51.158;0.880;2023-07-20T00:11:07;1012.77;;;16.4375;37.0329
73306;BME280;61530;51.158;0.880;2023-07-20T00:12:10;1012.77;;;16.375;36.0601
73306;BME280;61530;51.158;0.880;2023-07-20T00:13:14;1012.77;;;16.4375;35.8429
73306;BME280;61530;51.158;0.880;2023-07-20T00:14:16;1012.77;;;16.3125;35.8308
73306;BME280;61530;51.158;0.880;2023-07-20T00:15:18;1012.76;;;16.375;36.3985
73306;BME280;61530;51.158;0.880;2023-07-20T00:16:21;1012.77;;;16.4375;36.0523
73306;BME280;61530;51.158;0.880;2023-07-20T00:17:24;1012.77;;;16.5;35.7883
73306;BME280;61530;51.158;0.880;2023-07-20T00:18:27;1012.81;;;16.25;35.6539
73306;BME280;61530;51.158;0.880;2023-07-20T00:19:30;1012.79;;;16.1875;35.5838
73306;BME280;61530;51.158;0.880;2023-07-20T00:20:33;1012.75;;;16.1875;35.3848
73306;BME280;61530;51.158;0.880;2023-07-20T00:21:36;1012.77;;;16.3125;35.5542
73306;BME280;61530;51.158;0.880;2023-07-20T00:22:39;1012.77;;;16.3125;35.8054
73306;BME280;61530;51.158;0.880;2023-07-20T00:23:42;1012.77;;;16.25;35.9473
73306;BME280;61530;51.158;0.880;2023-07-20T00:24:45;1012.73;;;16.0625;36.2647
73306;BME280;61530;51.158;0.880;2023-07-20T00:25:48;1012.74;;;16.1875;36.2241
73306;BME280;61530;51.158;0.880;2023-07-20T00:26:51;1012.74;;;16.0625;36.3531
73306;BME280;61530;51.158;0.880;2023-07-20T00:27:54;1012.72;;;16.1875;36.3168
73306;BME280;61530;51.158;0.880;2023-07-20T00:28:57;1012.71;;;16.3125;36.3699
73306;BME280;61530;51.158;0.880;2023-07-20T00:30:00;1012.73;;;16.375;36.9905
73306;BME280;61530;51.158;0.880;2023-07-20T00:31:03;1012.73;;;16.3125;36.2883
73306;BME280;61530;51.158;0.880;2023-07-20T00:32:07;1012.72;;;16.3125;35.9126
73306;BME280;61530;51.158;0.880;2023-07-20T00:33:11;1012.7;;;16.4375;36.7264
73306;BME280;61530;51.158;0.880;2023-07-20T00:34:12;1012.7;;;16.4375;36.0993
73306;BME280;61530;51.158;0.880;2023-07-20T00:35:14;1012.67;;;16.5;36.0637
73306;BME280;61530;51.158;0.880;2023-07-20T00:36:17;1012.66;;;16.5625;36.3329
73306;BME280;61530;51.158;0.880;2023-07-20T00:37:20;1012.64;;;16.5625;35.0793
73306;BME280;61530;51.158;0.880;2023-07-20T00:38:23;1012.62;;;16.4375;35.9478
73306;BME280;61530;51.158;0.880;2023-07-20T00:39:26;1012.64;;;16.3125;35.9939
73306;BME280;61530;51.158;0.880;2023-07-20T00:40:35;1012.63;;;16.375;36.4869
73306;BME280;61530;51.158;0.880;2023-07-20T00:41:32;1012.62;;;16.375;36.289
73306;BME280;61530;51.158;0.880;2023-07-20T00:42:35;1012.65;;;16.1875;36.7827
73306;BME280;61530;51.158;0.880;2023-07-20T00:43:38;1012.65;;;16.1875;37.0174
73306;BME280;61530;51.158;0.880;2023-07-20T00:44:41;1012.69;;;16.125;37.088
73306;BME280;61530;51.158;0.880;2023-07-20T00:45:44;1012.67;;;16.125;36.7539
73306;BME280;61530;51.158;0.880;2023-07-20T00:46:47;1012.67;;;16.125;37.4199
73306;BME280;61530;51.158;0.880;2023-07-20T00:47:50;1012.68;;;16.1875;36.9926
73306;BME280;61530;51.158;0.880;2023-07-20T00:48:54;1012.64;;;16.25;36.834
73306;BME280;61530;51.158;0.880;2023-07-20T00:49:56;1012.64;;;16.25;36.8048
73306;BME280;61530;51.158;0.880;2023-07-20T00:51:02;1012.64;;;16.3125;36.4301
73306;BME280;61530;51.158;0.880;2023-07-20T00:52:07;1012.62;;;16.25;36.4711
73306;BME280;61530;51.158;0.880;2023-07-20T00:53:10;1012.62;;;16.375;36.7213
73306;BME280;61530;51.158;0.880;2023-07-20T00:54:12;1012.66;;;16.375;36.7344
73306;BME280;61530;51.158;0.880;2023-07-20T00:55:15;1012.67;;;16.4375;36.4302
73306;BME280;61530;51.158;0.880;2023-07-20T00:56:19;1012.67;;;16.3125;36.5012
73306;BME280;61530;51.158;0.880;2023-07-20T00:57:21;1012.68;;;16.125;36.6603
73306;BME280;61530;51.158;0.880;2023-07-20T00:58:24;1012.66;;;16.0625;36.3016
73306;BME280;61530;51.158;0.880;2023-07-20T00:59:27;1012.65;;;15.9375;36.3137
73306;BME280;61530;51.158;0.880;2023-07-20T01:00:30;1012.67;;;15.875;36.8817
73306;BME280;61530;51.158;0.880;2023-07-20T01:01:35;1012.64;;;16.0;36.4666
73306;BME280;61530;51.158;0.880;2023-07-20T01:02:39;1012.64;;;15.875;35.7122
73306;BME280;61530;51.158;0.880;2023-07-20T01:03:42;1012.67;;;15.8125;36.3199
73306;BME280;61530;51.158;0.880;2023-07-20T01:04:45;1012.7;;;15.875;36.7586
73306;BME280;61530;51.158;0.880;2023-07-20T01:06:05;1012.68;;;16.0;36.5769
73306;BME280;61530;51.158;0.880;2023-07-20T01:06:58;1012.72;;;16.0625;36.4773
73306;BME280;61530;51.158;0.880;2023-07-20T01:07:59;1012.73;;;16.0625;36.4193
73306;BME280;61530;51.158;0.880;2023-07-20T01:09:05;1012.72;;;15.9375;36.3843
73306;BME280;61530;51.158;0.880;2023-07-20T01:10:08;1012.7;;;15.9375;36.4901
73306;BME280;61530;51.158;0.880;2023-07-20T01:11:12;1012.69;;;15.875;36.3134
73306;BME280;61530;51.158;0.880;2023-07-20T01:12:14;1012.69;;;15.9375;36.43
73306;BME280;61530;51.158;0.880;2023-07-20T01:13:14;1012.72;;;16.0;36.6537
73306;BME280;61530;51.158;0.880;2023-07-20T01:14:14;1012.7;;;16.0;37.3099
73306;BME280;61530;51.158;0.880;2023-07-20T01:15:17;1012.73;;;16.0;37.3746
73306;BME280;61530;51.158;0.880;2023-07-20T01:16:20;1012.69;;;16.0;37.2507
73306;BME280;61530;51.158;0.880;2023-07-20T01:17:23;1012.67;;;15.9375;36.6361
73306;BME280;61530;51.158;0.880;2023-07-20T01:18:26;1012.62;;;15.9375;36.325
73306;BME280;61530;51.158;0.880;2023-07-20T01:19:29;1012.59;;;15.875;36.2317
73306;BME280;61530;51.158;0.880;2023-07-20T01:20:33;1012.58;;;15.9375;36.2135
73306;BME280;61530;51.158;0.880;2023-07-20T01:21:41;1012.57;;;16.0;36.5124
73306;BME280;61530;51.158;0.880;2023-07-20T01:22:52;1012.6;;;16.0625;36.6289
73306;BME280;61530;51.158;0.880;2023-07-20T01:24:04;1012.61;;;16.125;36.9806
73306;BME280;61530;51.158;0.880;2023-07-20T01:25:03;1012.62;;;16.1875;36.5131
73306;BME280;61530;51.158;0.880;2023-07-20T01:26:02;1012.62;;;16.0625;37.024
73306;BME280;61530;51.158;0.880;2023-07-20T01:27:08;1012.6;;;16.0625;36.5504
73306;BME280;61530;51.158;0.880;2023-07-20T01:28:21;1012.57;;;16.0625;37.0637
73306;BME280;61530;51.158;0.880;2023-07-20T01:29:16;1012.57;;;16.125;37.3972
73306;BME280;61530;51.158;0.880;2023-07-20T01:30:15;1012.56;;;16.125;37.0757
73306;BME280;61530;51.158;0.880;2023-07-20T01:31:37;1012.55;;;16.25;37.3443
73306;BME280;61530;51.158;0.880;2023-07-20T01:32:06;1012.55;;;16.3125;36.8878
73306;BME280;61530;51.158;0.880;2023-07-20T01:33:09;1012.56;;;16.1875;36.4304
73306;BME280;61530;51.158;0.880;2023-07-20T01:34:12;1012.53;;;16.1875;36.401
73306;BME280;61530;51.158;0.880;2023-07-20T01:35:16;1012.54;;;16.1875;36.308
73306;BME280;61530;51.158;0.880;2023-07-20T01:36:18;1012.53;;;16.0625;36.4551
73306;BME280;61530;51.158;0.880;2023-07-20T01:37:21;1012.53;;;16.0;36.6708
73306;BME280;61530;51.158;0.880;2023-07-20T01:38:24;1012.52;;;16.0625;36.6191
73306;BME280;61530;51.158;0.880;2023-07-20T01:39:26;1012.54;;;16.0;36.531
73306;BME280;61530;51.158;0.880;2023-07-20T01:40:27;1012.54;;;16.0625;36.8074
73306;BME280;61530;51.158;0.880;2023-07-20T01:41:30;1012.56;;;15.9375;37.4396
73306;BME280;61530;51.158;0.880;2023-07-20T01:42:33;1012.55;;;15.875;37.1065
73306;BME280;61530;51.158;0.880;2023-07-20T01:43:36;1012.55;;;15.875;36.8779
73306;BME280;61530;51.158;0.880;2023-07-20T01:44:39;1012.54;;;15.8125;36.7148
73306;BME280;61530;51.158;0.880;2023-07-20T01:45:42;1012.57;;;15.8125;36.7484
73306;BME280;61530;51.158;0.880;2023-07-20T01:46:45;1012.54;;;15.9375;36.9466
73306;BME280;61530;51.158;0.880;2023-07-20T01:47:48;1012.54;;;16.0;36.7134
73306;BME280;61530;51.158;0.880;2023-07-20T01:48:51;1012.55;;;16.0;36.2989
73306;BME280;61530;51.158;0.880;2023-07-20T01:49:55;1012.54;;;16.0;36.6205
73306;BME280;61530;51.158;0.880;2023-07-20T01:50:58;1012.52;;;15.9375;36.691
73306;BME280;61530;51.158;0.880;2023-07-20T01:52:01;1012.53;;;16.0;36.7951
73306;BME280;61530;51.158;0.880;2023-07-20T01:53:04;1012.52;;;16.0;36.9119
73306;BME280;61530;51.158;0.880;2023-07-20T01:54:07;1012.53;;;16.0625;36.479
73306;BME280;61530;51.158;0.880;2023-07-20T01:55:10;1012.55;;;16.0625;36.5079
73306;BME280;61530;51.158;0.880;2023-07-20T01:56:13;1012.56;;;16.125;36.6367
73306;BME280;61530;51.158;0.880;2023-07-20T01:57:16;1012.56;;;16.125;35.952
73306;BME280;61530;51.158;0.880;2023-07-20T01:58:19;1012.58;;;16.1875;36.4728
73306;BME280;61530;51.158;0.880;2023-07-20T01:59:22;1012.58;;;16.1875;36.1165
73306;BME280;61530;51.158;0.880;2023-07-20T02:00:26;1012.58;;;16.125;36.5957
73306;BME280;61530;51.158;0.880;2023-07-20T02:01:29;1012.57;;;16.125;36.1046
73306;BME280;61530;51.158;0.880;2023-07-20T02:02:32;1012.55;;;16.125;36.6254
73306;BME280;61530;51.158;0.880;2023-07-20T02:03:36;1012.54;;;16.0;36.1342
73306;BME280;61530;51.158;0.880;2023-07-20T02:04:39;1012.55;;;16.125;36.1983
73306;BME280;61530;51.158;0.880;2023-07-20T02:05:43;1012.54;;;16.125;36.2803
73306;BME280;61530;51.158;0.880;2023-07-20T02:06:45;1012.53;;;16.0625;36.4444
73306;BME280;61530;51.158;0.880;2023-07-20T02:07:48;1012.53;;;16.125;36.5271
73306;BME280;61530;51.158;0.880;2023-07-20T02:08:51;1012.52;;;16.0625;36.3272
73306;BME280;61530;51.158;0.880;2023-07-20T02:09:54;1012.52;;;16.125;36.514
73306;BME280;61530;51.158;0.880;2023-07-20T02:10:57;1012.51;;;16.0625;36.0926
73306;BME280;61530;51.158;0.880;2023-07-20T02:12:00;1012.51;;;16.0;35.9117
73306;BME280;61530;51.158;0.880;2023-07-20T02:13:03;1012.51;;;15.6875;36.0987
73306;BME280;61530;51.158;0.880;2023-07-20T02:14:06;1012.52;;;15.5625;35.8713
73306;BME280;61530;51.158;0.880;2023-07-20T02:15:10;1012.55;;;15.4375;36.353
73306;BME280;61530;51.158;0.880;2023-07-20T02:16:12;1012.54;;;15.3125;36.4999
73306;BME280;61530;51.158;0.880;2023-07-20T02:17:15;1012.56;;;15.4375;36.6167
73306;BME280;61530;51.158;0.880;2023-07-20T02:18:18;1012.55;;;15.4375;36.5933
73306;BME280;61530;51.158;0.880;2023-07-20T02:19:21;1012.54;;;15.375;36.5462
73306;BME280;61530;51.158;0.880;2023-07-20T02:20:24;1012.53;;;15.1875;36.4933
73306;BME280;61530;51.158;0.880;2023-07-20T02:21:27;1012.54;;;15.25;36.505
73306;BME280;61530;51.158;0.880;2023-07-20T02:22:30;1012.54;;;15.3125;36.6278
73306;BME280;61530;51.158;0.880;2023-07-20T02:23:33;1012.52;;;15.3125;36.3305
73306;BME280;61530;51.158;0.880;2023-07-20T02:24:36;1012.54;;;15.3125;36.3879
73306;BME280;61530;51.158;0.880;2023-07-20T02:25:39;1012.56;;;15.375;36.6276
73306;BME280;61530;51.158;0.880;2023-07-20T02:26:42;1012.56;;;15.5;36.6214
73306;BME280;61530;51.158;0.880;2023-07-20T02:27:45;1012.54;;;15.5;36.7277
73306;BME280;61530;51.158;0.880;2023-07-20T02:28:48;1012.53;;;15.3125;36.8569
73306;BME280;61530;51.158;0.880;2023-07-20T02:29:51;1012.51;;;15.3125;36.6105
73306;BME280;61530;51.158;0.880;2023-07-20T02:30:54;1012.47;;;15.3125;36.7042
73306;BME280;61530;51.158;0.880;2023-07-20T02:31:58;1012.47;;;15.1875;36.8567
73306;BME280;61530;51.158;0.880;2023-07-20T02:33:01;1012.44;;;15.1875;37.1736
73306;BME280;61530;51.158;0.880;2023-07-20T02:34:04;1012.44;;;15.1875;37.5252
73306;BME280;61530;51.158;0.880;2023-07-20T02:35:07;1012.42;;;15.1875;37.4253
73306;BME280;61530;51.158;0.880;2023-07-20T02:36:12;1012.44;;;15.3125;37.4825
73306;BME280;61530;51.158;0.880;2023-07-20T02:37:16;1012.44;;;15.3125;37.6884
73306;BME280;61530;51.158;0.880;2023-07-20T02:38:18;1012.47;;;15.25;38.2737
73306;BME280;61530;51.158;0.880;2023-07-20T02:39:22;1012.47;;;15.3125;38.4956
73306;BME280;61530;51.158;0.880;2023-07-20T02:40:25;1012.48;;;15.3125;38.2786
73306;BME280;61530;51.158;0.880;2023-07-20T02:41:28;1012.51;;;15.375;38.0976
73306;BME280;61530;51.158;0.880;2023-07-20T02:42:31;1012.49;;;15.4375;38.319
73306;BME280;61530;51.158;0.880;2023-07-20T02:43:34;1012.48;;;15.4375;37.8695
73306;BME280;61530;51.158;0.880;2023-07-20T02:44:37;1012.45;;;15.5;37.9283
73306;BME280;61530;51.158;0.880;2023-07-20T02:45:41;1012.43;;;15.5;38.2075
73306;BME280;61530;51.158;0.880;2023-07-20T02:46:43;1012.41;;;15.5;37.8508
73306;BME280;61530;51.158;0.880;2023-07-20T02:47:46;1012.42;;;15.6875;37.3834
73306;BME280;61530;51.158;0.880;2023-07-20T02:48:49;1012.43;;;15.5625;37.4244
73306;BME280;61530;51.158;0.880;2023-07-20T02:49:52;1012.41;;;15.5625;37.7626
73306;BME280;61530;51.158;0.880;2023-07-20T02:50:55;1012.43;;;15.625;36.8596
73306;BME280;61530;51.158;0.880;2023-07-20T02:51:58;1012.43;;;15.6875;38.0963
73306;BME280;61530;51.158;0.880;2023-07-20T02:53:01;1012.44;;;15.75;37.5463
73306;BME280;61530;51.158;0.880;2023-07-20T02:54:04;1012.43;;;15.8125;37.4705
73306;BME280;61530;51.158;0.880;2023-07-20T02:55:07;1012.43;;;15.8125;37.6164
73306;BME280;61530;51.158;0.880;2023-07-20T02:56:10;1012.43;;;15.8125;37.2661
73306;BME280;61530;51.158;0.880;2023-07-20T02:57:13;1012.42;;;15.8125;37.0146
73306;BME280;61530;51.158;0.880;2023-07-20T02:58:16;1012.43;;;15.875;37.4172
73306;BME280;61530;51.158;0.880;2023-07-20T02:59:16;1012.46;;;15.875;37.2119
73306;BME280;61530;51.158;0.880;2023-07-20T03:00:19;1012.45;;;15.9375;37.0303
73306;BME280;61530;51.158;0.880;2023-07-20T03:01:22;1012.42;;;16.0;37.0944
73306;BME280;61530;51.158;0.880;2023-07-20T03:02:25;1012.42;;;16.0;36.9892
73306;BME280;61530;51.158;0.880;2023-07-20T03:03:28;1012.44;;;16.0;36.9423
73306;BME280;61530;51.158;0.880;2023-07-20T03:04:32;1012.47;;;15.9375;37.218
73306;BME280;61530;51.158;0.880;2023-07-20T03:05:35;1012.45;;;16.0;37.5036
73306;BME280;61530;51.158;0.880;2023-07-20T03:06:38;1012.46;;;15.9375;36.8198
73306;BME280;61530;51.158;0.880;2023-07-20T03:07:41;1012.46;;;15.9375;36.2116
73306;BME280;61530;51.158;0.880;2023-07-20T03:08:46;1012.46;;;15.8125;36.4467
73306;BME280;61530;51.158;0.880;2023-07-20T03:09:49;1012.48;;;15.75;36.8556
73306;BME280;61530;51.158;0.880;2023-07-20T03:10:54;1012.5;;;15.8125;36.7211
73306;BME280;61530;51.158;0.880;2023-07-20T03:11:57;1012.49;;;15.75;36.6456
73306;BME280;61530;51.158;0.880;2023-07-20T03:13:00;1012.51;;;15.75;37.0075
73306;BME280;61530;51.158;0.880;2023-07-20T03:14:03;1012.5;;;15.875;36.8736
73306;BME280;61530;51.158;0.880;2023-07-20T03:15:07;1012.5;;;15.875;37.16
73306;BME280;61530;51.158;0.880;2023-07-20T03:16:09;1012.51;;;15.8125;36.6403
73306;BME280;61530;51.158;0.880;2023-07-20T03:17:12;1012.51;;;15.8125;36.5517
73306;BME280;61530;51.158;0.880;2023-07-20T03:18:15;1012.5;;;15.9375;36.4753
73306;BME280;61530;51.158;0.880;2023-07-20T03:19:18;1012.51;;;15.875;36.4816
73306;BME280;61530;51.158;0.880;2023-07-20T03:20:21;1012.49;;;15.875;36.8089
73306;BME280;61530;51.158;0.880;2023-07-20T03:21:24;1012.47;;;15.875;36.4926
73306;BME280;61530;51.158;0.880;2023-07-20T03:22:27;1012.48;;;15.8125;36.6565
73306;BME280;61530;51.158;0.880;2023-07-20T03:23:30;1012.47;;;15.875;36.5391
73306;BME280;61530;51.158;0.880;2023-07-20T03:24:33;1012.47;;;15.875;36.6267
73306;BME280;61530;51.158;0.880;2023-07-20T03:25:36;1012.46;;;15.875;37.416
73306;BME280;61530;51.158;0.880;2023-07-20T03:26:39;1012.46;;;15.875;36.2713
73306;BME280;61530;51.158;0.880;2023-07-20T03:27:42;1012.45;;;15.8125;36.6288
73306;BME280;61530;51.158;0.880;2023-07-20T03:28:45;1012.47;;;15.8125;36.8268
73306;BME280;61530;51.158;0.880;2023-07-20T03:29:48;1012.47;;;15.875;36.9672
73306;BME280;61530;51.158;0.880;2023-07-20T03:30:53;1012.47;;;15.8125;36.8801
73306;BME280;61530;51.158;0.880;2023-07-20T03:31:54;1012.49;;;15.875;36.6354
73306;BME280;61530;51.158;0.880;2023-07-20T03:32:57;1012.5;;;15.9375;36.7921
73306;BME280;61530;51.158;0.880;2023-07-20T03:34:00;1012.49;;;15.875;36.2907
73306;BME280;61530;51.158;0.880;2023-07-20T03:35:03;1012.52;;;15.875;36.4006
73306;BME280;61530;51.158;0.880;2023-07-20T03:36:06;1012.52;;;15.8125;36.0397
73306;BME280;61530;51.158;0.880;2023-07-20T03:37:09;1012.55;;;15.5625;36.4756
73306;BME280;61530;51.158;0.880;2023-07-20T03:38:12;1012.55;;;15.5;36.054
73306;BME280;61530;51.158;0.880;2023-07-20T03:39:15;1012.56;;;15.5;36.1994
73306;BME280;61530;51.158;0.880;2023-07-20T03:40:18;1012.59;;;15.5;36.0412
73306;BME280;61530;51.158;0.880;2023-07-20T03:41:21;1012.58;;;15.3125;36.3818
73306;BME280;61530;51.158;0.880;2023-07-20T03:42:24;1012.57;;;15.125;36.3052
73306;BME280;61530;51.158;0.880;2023-07-20T03:43:28;1012.56;;;15.0625;36.3345
73306;BME280;61530;51.158;0.880;2023-07-20T03:44:30;1012.57;;;15.0625;36.3534
73306;BME280;61530;51.158;0.880;2023-07-20T03:45:33;1012.54;;;14.9375;36.9554
73306;BME280;61530;51.158;0.880;2023-07-20T03:46:36;1012.53;;;15.0;37.0498
73306;BME280;61530;51.158;0.880;2023-07-20T03:47:39;1012.54;;;15.0;37.3996
73306;BME280;61530;51.158;0.880;2023-07-20T03:48:42;1012.52;;;15.0;37.4534
73306;BME280;61530;51.158;0.880;2023-07-20T03:49:45;1012.51;;;14.9375;37.5183
73306;BME280;61530;51.158;0.880;2023-07-20T03:50:49;1012.5;;;14.875;37.6283
73306;BME280;61530;51.158;0.880;2023-07-20T03:51:51;1012.52;;;15.0;37.1785
73306;BME280;61530;51.158;0.880;2023-07-20T03:52:54;1012.53;;;15.125;37.3285
73306;BME280;61530;51.158;0.880;2023-07-20T03:53:57;1012.51;;;15.125;36.92
73306;BME280;61530;51.158;0.880;2023-07-20T03:55:01;1012.5;;;15.25;37.3395
73306;BME280;61530;51.158;0.880;2023-07-20T03:56:04;1012.52;;;15.3125;36.9309
73306;BME280;61530;51.158;0.880;2023-07-20T03:57:07;1012.53;;;15.375;37.0188
73306;BME280;61530;51.158;0.880;2023-07-20T03:58:10;1012.56;;;15.4375;37.0824
73306;BME280;61530;51.158;0.880;2023-07-20T03:59:13;1012.57;;;15.4375;36.831
73306;BME280;61530;51.158;0.880;2023-07-20T04:00:16;1012.57;;;15.5625;36.6382
73306;BME280;61530;51.158;0.880;2023-07-20T04:01:19;1012.57;;;15.5;36.5278
73306;BME280;61530;51.158;0.880;2023-07-20T04:02:22;1012.56;;;15.375;36.7574
73306;BME280;61530;51.158;0.880;2023-07-20T04:03:25;1012.57;;;15.4375;36.7154
73306;BME280;61530;51.158;0.880;2023-07-20T04:04:28;1012.56;;;15.3125;36.9231
73306;BME280;61530;51.158;0.880;2023-07-20T04:05:31;1012.56;;;15.25;37.2039
73306;BME280;61530;51.158;0.880;2023-07-20T04:06:34;1012.58;;;15.1875;37.1925
73306;BME280;61530;51.158;0.880;2023-07-20T04:07:37;1012.57;;;15.125;37.9208
73306;BME280;61530;51.158;0.880;2023-07-20T04:08:40;1012.59;;;15.0625;36.6446
73306;BME280;61530;51.158;0.880;2023-07-20T04:09:43;1012.55;;;15.0;37.1754
73306;BME280;61530;51.158;0.880;2023-07-20T04:10:46;1012.59;;;14.9375;37.2401
73306;BME280;61530;51.158;0.880;2023-07-20T04:11:49;1012.55;;;15.0;37.3572
73306;BME280;61530;51.158;0.880;2023-07-20T04:12:52;1012.52;;;15.0625;37.5367
73306;BME280;61530;51.158;0.880;2023-07-20T04:13:55;1012.51;;;15.0;37.2436
73306;BME280;61530;51.158;0.880;2023-07-20T04:14:58;1012.5;;;15.0625;37.0326
73306;BME280;61530;51.158;0.880;2023-07-20T04:16:01;1012.48;;;15.125;36.7001
73306;BME280;61530;51.158;0.880;2023-07-20T04:17:04;1012.47;;;15.125;36.1752
73306;BME280;61530;51.158;0.880;2023-07-20T04:18:07;1012.48;;;15.125;36.0931
73306;BME280;61530;51.158;0.880;2023-07-20T04:19:10;1012.48;;;15.0;36.176
73306;BME280;61530;51.158;0.880;2023-07-20T04:20:13;1012.47;;;15.0625;36.4263
73306;BME280;61530;51.158;0.880;2023-07-20T04:21:16;1012.47;;;15.125;36.758
73306;BME280;61530;51.158;0.880;2023-07-20T04:22:19;1012.48;;;15.25;36.8978
73306;BME280;61530;51.158;0.880;2023-07-20T04:23:22;1012.46;;;15.1875;36.2873
73306;BME280;61530;51.158;0.880;2023-07-20T04:24:25;1012.47;;;15.1875;36.9106
73306;BME280;61530;51.158;0.880;2023-07-20T04:25:28;1012.46;;;15.1875;36.7465
73306;BME280;61530;51.158;0.880;2023-07-20T04:26:31;1012.5;;;15.3125;36.1636
73306;BME280;61530;51.158;0.880;2023-07-20T04:27:34;1012.51;;;15.3125;36.7118
73306;BME280;61530;51.158;0.880;2023-07-20T04:28:37;1012.5;;;15.375;36.4081
73306;BME280;61530;51.158;0.880;2023-07-20T04:29:40;1012.5;;;15.3125;36.3092
73306;BME280;61530;51.158;0.880;2023-07-20T04:30:43;1012.5;;;15.3125;36.5828
73306;BME280;61530;51.158;0.880;2023-07-20T04:31:46;1012.48;;;15.3125;36.139
73306;BME280;61530;51.158;0.880;2023-07-20T04:32:49;1012.46;;;15.3125;35.9641
73306;BME280;61530;51.158;0.880;2023-07-20T04:33:52;1012.49;;;15.25;36.2732
73306;BME280;61530;51.158;0.880;2023-07-20T04:34:55;1012.51;;;15.125;35.7785
73306;BME280;61530;51.158;0.880;2023-07-20T04:35:58;1012.51;;;15.125;35.9762
73306;BME280;61530;51.158;0.880;2023-07-20T04:37:01;1012.51;;;15.25;35.9406
73306;BME280;61530;51.158;0.880;2023-07-20T04:38:01;1012.5;;;15.125;35.9708
73306;BME280;61530;51.158;0.880;2023-07-20T04:39:04;1012.49;;;15.25;36.256
73306;BME280;61530;51.158;0.880;2023-07-20T04:40:08;1012.48;;;15.3125;36.6649
73306;BME280;61530;51.158;0.880;2023-07-20T04:41:10;1012.47;;;15.25;35.9059
73306;BME280;61530;51.158;0.880;2023-07-20T04:42:13;1012.45;;;15.1875;36.099
73306;BME280;61530;51.158;0.880;2023-07-20T04:43:18;1012.44;;;15.25;36.4615
73306;BME280;61530;51.158;0.880;2023-07-20T04:44:21;1012.45;;;15.3125;36.7879
73306;BME280;61530;51.158;0.880;2023-07-20T04:45:24;1012.43;;;15.25;35.9121
73306;BME280;61530;51.158;0.880;2023-07-20T04:46:27;1012.42;;;15.3125;35.8201
73306;BME280;61530;51.158;0.880;2023-07-20T04:47:30;1012.43;;;15.1875;36.2304
73306;BME280;61530;51.158;0.880;2023-07-20T04:48:33;1012.42;;;15.1875;36.1604
73306;BME280;61530;51.158;0.880;2023-07-20T04:49:36;1012.42;;;15.0;36.6918
73306;BME280;61530;51.158;0.880;2023-07-20T04:50:41;1012.44;;;14.8125;36.7635
73306;BME280;61530;51.158;0.880;2023-07-20T04:51:42;1012.42;;;14.75;37.1836
73306;BME280;61530;51.158;0.880;2023-07-20T04:52:45;1012.44;;;14.8125;37.2176
73306;BME280;61530;51.158;0.880;2023-07-20T04:53:48;1012.44;;;14.875;37.0428
73306;BME280;61530;51.158;0.880;2023-07-20T04:54:51;1012.45;;;14.875;36.8678
73306;BME280;61530;51.158;0.880;2023-07-20T04:55:54;1012.42;;;14.8125;36.7505
73306;BME280;61530;51.158;0.880;2023-07-20T04:56:57;1012.42;;;14.75;36.6334
73306;BME280;61530;51.158;0.880;2023-07-20T04:58:01;1012.44;;;14.75;36.2092
73306;BME280;61530;51.158;0.880;2023-07-20T04:59:03;1012.45;;;14.8125;36.7051
73306;BME280;61530;51.158;0.880;2023-07-20T05:00:07;1012.43;;;14.875;37.2646
73306;BME280;61530;51.158;0.880;2023-07-20T05:01:09;1012.44;;;14.875;37.5981
73306;BME280;61530;51.158;0.880;2023-07-20T05:02:12;1012.43;;;14.875;37.5861
73306;BME280;61530;51.158;0.880;2023-07-20T05:03:15;1012.42;;;14.8125;37.4049
73306;BME280;61530;51.158;0.880;2023-07-20T05:04:18;1012.44;;;14.875;37.1361
73306;BME280;61530;51.158;0.880;2023-07-20T05:05:22;1012.42;;;14.875;37.3822
73306;BME280;61530;51.158;0.880;2023-07-20T05:06:24;1012.41;;;14.9375;37.9528
73306;BME280;61530;51.158;0.880;2023-07-20T05:07:27;1012.41;;;15.0;37.0892
73306;BME280;61530;51.158;0.880;2023-07-20T05:08:30;1012.4;;;15.0;37.1005
73306;BME280;61530;51.158;0.880;2023-07-20T05:09:33;1012.37;;;15.0625;36.9705
73306;BME280;61530;51.158;0.880;2023-07-20T05:10:36;1012.38;;;15.125;37.1109
73306;BME280;61530;51.158;0.880;2023-07-20T05:11:39;1012.39;;;15.1875;37.1864
73306;BME280;61530;51.158;0.880;2023-07-20T05:12:42;1012.36;;;15.3125;36.8664
73306;BME280;61530;51.158;0.880;2023-07-20T05:13:46;1012.37;;;15.1875;36.8676
73306;BME280;61530;51.158;0.880;2023-07-20T05:14:48;1012.4;;;15.125;37.1246
73306;BME280;61530;51.158;0.880;2023-07-20T05:15:52;1012.4;;;15.125;37.2988
73306;BME280;61530;51.158;0.880;2023-07-20T05:16:54;1012.4;;;15.125;37.1398
73306;BME280;61530;51.158;0.880;2023-07-20T05:17:57;1012.41;;;15.25;36.8877
73306;BME280;61530;51.158;0.880;2023-07-20T05:19:00;1012.42;;;15.3125;36.8516
73306;BME280;61530;51.158;0.880;2023-07-20T05:20:04;1012.44;;;15.4375;36.862
73306;BME280;61530;51.158;0.880;2023-07-20T05:21:06;1012.43;;;15.5;36.6283
73306;BME280;61530;51.158;0.880;2023-07-20T05:22:10;1012.45;;;15.5;36.4293
73306;BME280;61530;51.158;0.880;2023-07-20T05:23:12;1012.45;;;15.5625;35.9738
73306;BME280;61530;51.158;0.880;2023-07-20T05:24:15;1012.46;;;15.625;36.3586
73306;BME280;61530;51.158;0.880;2023-07-20T05:25:19;1012.46;;;15.5625;36.3521